sensor_id;sensor_type;location;lat;lon;timestamp;temperature;humidity
21019;DHT22;10667;51.056;3.732;2024-02-16T00:01:43;14.80;99.90
21019;DHT22;10667;51.056;3.732;2024-02-16T00:04:09;14.90;99.90
21019;DHT22;10667;51.056;3.732;2024-02-16T00:06:34;14.80;99.90
21019;DHT22;10667;51.056;3.732;2024-02-16T00:09:00;14.90;99.90
21019;DHT22;10667;51.056;3.732;2024-02-16T00:11:26;15.00;99.90
21019;DHT22;10667;51.056;3.732;2024-02-16T00:13:53;15.00;99.90
21019;DHT22;10667;51.056;3.732;2024-02-16T00:16:18;15.00;99.90
21019;DHT22;10667;51.056;3.732;2024-02-16T00:18:44;15.00;99.90
21019;DHT22;10667;51.056;3.732;2024-02-16T00:21:09;15.10;99.90
21019;DHT22;10667;51.056;3.732;2024-02-16T00:23:35;15.10;99.90
21019;DHT22;10667;51.056;3.732;2024-02-16T00:26:02;15.10;99.90
21019;DHT22;10667;51.056;3.732;2024-02-16T00:28:30;15.00;99.90
21019;DHT22;10667;51.056;3.732;2024-02-16T00:30:56;15.10;99.90
21019;DHT22;10667;51.056;3.732;2024-02-16T00:33:22;15.10;99.90
21019;DHT22;10667;51.056;3.732;2024-02-16T00:35:47;15.10;99.90
21019;DHT22;10667;51.056;3.732;2024-02-16T00:38:15;15.20;99.90
21019;DHT22;10667;51.056;3.732;2024-02-16T00:40:40;15.20;99.90
21019;DHT22;10667;51.056;3.732;2024-02-16T00:43:09;15.20;99.90
21019;DHT22;10667;51.056;3.732;2024-02-16T00:45:35;15.10;99.90
21019;DHT22;10667;51.056;3.732;2024-02-16T00:48:00;15.00;99.90
21019;DHT22;10667;51.056;3.732;2024-02-16T00:50:27;15.10;99.90
21019;DHT22;10667;51.056;3.732;2024-02-16T00:52:53;15.10;99.90
21019;DHT22;10667;51.056;3.732;2024-02-16T00:55:19;15.10;99.90
21019;DHT22;10667;51.056;3.732;2024-02-16T00:57:44;15.10;99.90
21019;DHT22;10667;51.056;3.732;2024-02-16T01:00:10;15.10;99.90
21019;DHT22;10667;51.056;3.732;2024-02-16T01:02:36;15.10;99.90
21019;DHT22;10667;51.056;3.732;2024-02-16T01:05:02;15.10;99.90
21019;DHT22;10667;51.056;3.732;2024-02-16T01:07:28;15.10;99.90
21019;DHT22;10667;51.056;3.732;2024-02-16T01:09:54;15.00;99.90
21019;DHT22;10667;51.056;3.732;2024-02-16T01:12:22;15.00;99.90
21019;DHT22;10667;51.056;3.732;2024-02-16T01:14:47;14.90;99.90
21019;DHT22;10667;51.056;3.732;2024-02-16T01:17:13;14.90;99.90
21019;DHT22;10667;51.056;3.732;2024-02-16T01:19:39;14.90;99.90
21019;DHT22;10667;51.056;3.732;2024-02-16T01:22:05;14.80;99.90
21019;DHT22;10667;51.056;3.732;2024-02-16T01:24:31;14.90;99.90
21019;DHT22;10667;51.056;3.732;2024-02-16T01:26:57;14.80;99.90
21019;DHT22;10667;51.056;3.732;2024-02-16T01:29:23;14.80;99.90
21019;DHT22;10667;51.056;3.732;2024-02-16T01:31:49;14.80;99.90
21019;DHT22;10667;51.056;3.732;2024-02-16T01:34:14;14.80;99.90
21019;DHT22;10667;51.056;3.732;2024-02-16T01:36:40;14.70;99.90
21019;DHT22;10667;51.056;3.732;2024-02-16T01:39:06;14.60;99.90
21019;DHT22;10667;51.056;3.732;2024-02-16T01:41:33;14.70;99.90
21019;DHT22;10667;51.056;3.732;2024-02-16T01:43:58;14.70;99.90
21019;DHT22;10667;51.056;3.732;2024-02-16T01:46:25;14.70;99.90
21019;DHT22;10667;51.056;3.732;2024-02-16T01:48:52;14.60;99.90
21019;DHT22;10667;51.056;3.732;2024-02-16T01:51:18;14.70;99.90
21019;DHT22;10667;51.056;3.732;2024-02-16T01:53:44;14.60;99.90
21019;DHT22;10667;51.056;3.732;2024-02-16T01:56:10;14.70;99.90
21019;DHT22;10667;51.056;3.732;2024-02-16T01:58:36;14.80;99.90
21019;DHT22;10667;51.056;3.732;2024-02-16T02:01:02;14.80;99.90
21019;DHT22;10667;51.056;3.732;2024-02-16T02:03:28;14.70;99.90
21019;DHT22;10667;51.056;3.732;2024-02-16T02:05:54;14.60;99.90
21019;DHT22;10667;51.056;3.732;2024-02-16T02:08:21;14.60;99.90
21019;DHT22;10667;51.056;3.732;2024-02-16T02:10:47;14.60;99.90
21019;DHT22;10667;51.056;3.732;2024-02-16T02:13:12;14.50;99.90
21019;DHT22;10667;51.056;3.732;2024-02-16T02:15:38;14.50;99.90
21019;DHT22;10667;51.056;3.732;2024-02-16T02:18:04;14.50;99.90
21019;DHT22;10667;51.056;3.732;2024-02-16T02:20:29;14.50;99.90
21019;DHT22;10667;51.056;3.732;2024-02-16T02:22:55;14.50;99.90
21019;DHT22;10667;51.056;3.732;2024-02-16T02:25:21;14.50;99.90
21019;DHT22;10667;51.056;3.732;2024-02-16T02:27:47;14.70;99.90
21019;DHT22;10667;51.056;3.732;2024-02-16T02:30:12;14.70;99.90
21019;DHT22;10667;51.056;3.732;2024-02-16T02:32:38;14.70;99.90
21019;DHT22;10667;51.056;3.732;2024-02-16T02:35:05;14.70;99.90
21019;DHT22;10667;51.056;3.732;2024-02-16T02:37:30;14.70;99.90
21019;DHT22;10667;51.056;3.732;2024-02-16T02:39:56;14.80;99.90
21019;DHT22;10667;51.056;3.732;2024-02-16T02:42:22;14.70;99.90
21019;DHT22;10667;51.056;3.732;2024-02-16T02:44:48;14.70;99.90
21019;DHT22;10667;51.056;3.732;2024-02-16T02:47:16;14.70;99.90
21019;DHT22;10667;51.056;3.732;2024-02-16T02:49:44;14.60;99.90
21019;DHT22;10667;51.056;3.732;2024-02-16T02:52:10;14.70;99.90
21019;DHT22;10667;51.056;3.732;2024-02-16T02:54:36;14.60;99.90
21019;DHT22;10667;51.056;3.732;2024-02-16T02:57:02;14.70;99.90
21019;DHT22;10667;51.056;3.732;2024-02-16T02:59:28;14.70;99.90
21019;DHT22;10667;51.056;3.732;2024-02-16T03:01:53;14.70;99.90
21019;DHT22;10667;51.056;3.732;2024-02-16T03:04:19;14.70;99.90
21019;DHT22;10667;51.056;3.732;2024-02-16T03:06:46;14.80;99.90
21019;DHT22;10667;51.056;3.732;2024-02-16T03:09:11;14.80;99.90
21019;DHT22;10667;51.056;3.732;2024-02-16T03:11:40;14.80;99.90
21019;DHT22;10667;51.056;3.732;2024-02-16T03:14:06;14.90;99.90
21019;DHT22;10667;51.056;3.732;2024-02-16T03:16:32;14.90;99.90
21019;DHT22;10667;51.056;3.732;2024-02-16T03:18:58;14.90;99.90
21019;DHT22;10667;51.056;3.732;2024-02-16T03:21:23;14.90;99.90
21019;DHT22;10667;51.056;3.732;2024-02-16T03:23:49;14.90;99.90
21019;DHT22;10667;51.056;3.732;2024-02-16T03:26:19;15.10;99.90
21019;DHT22;10667;51.056;3.732;2024-02-16T03:28:46;15.10;99.90
21019;DHT22;10667;51.056;3.732;2024-02-16T03:31:19;15.00;99.90
21019;DHT22;10667;51.056;3.732;2024-02-16T03:33:46;14.90;99.90
21019;DHT22;10667;51.056;3.732;2024-02-16T03:36:13;14.90;99.90
21019;DHT22;10667;51.056;3.732;2024-02-16T03:38:43;14.90;99.90
21019;DHT22;10667;51.056;3.732;2024-02-16T03:41:19;14.90;99.90
21019;DHT22;10667;51.056;3.732;2024-02-16T03:43:45;15.00;99.90
21019;DHT22;10667;51.056;3.732;2024-02-16T03:46:10;15.00;99.90
21019;DHT22;10667;51.056;3.732;2024-02-16T03:48:36;15.00;99.90
21019;DHT22;10667;51.056;3.732;2024-02-16T03:51:02;15.00;99.90
21019;DHT22;10667;51.056;3.732;2024-02-16T03:53:31;15.00;99.90
21019;DHT22;10667;51.056;3.732;2024-02-16T03:55:57;15.00;99.90
21019;DHT22;10667;51.056;3.732;2024-02-16T03:58:23;15.00;99.90
21019;DHT22;10667;51.056;3.732;2024-02-16T04:00:49;15.00;99.90
21019;DHT22;10667;51.056;3.732;2024-02-16T04:03:15;15.00;99.90
21019;DHT22;10667;51.056;3.732;2024-02-16T04:05:40;15.00;99.90
21019;DHT22;10667;51.056;3.732;2024-02-16T04:08:07;15.00;99.90
21019;DHT22;10667;51.056;3.732;2024-02-16T04:10:35;15.10;99.90
21019;DHT22;10667;51.056;3.732;2024-02-16T04:13:01;15.10;99.90
21019;DHT22;10667;51.056;3.732;2024-02-16T04:15:28;15.00;99.90
21019;DHT22;10667;51.056;3.732;2024-02-16T04:17:53;15.00;99.90
21019;DHT22;10667;51.056;3.732;2024-02-16T04:20:20;15.10;99.90
21019;DHT22;10667;51.056;3.732;2024-02-16T04:22:45;15.10;99.90
21019;DHT22;10667;51.056;3.732;2024-02-16T04:25:11;15.10;99.90
21019;DHT22;10667;51.056;3.732;2024-02-16T04:27:38;15.10;99.90
21019;DHT22;10667;51.056;3.732;2024-02-16T04:30:05;15.00;99.90
21019;DHT22;10667;51.056;3.732;2024-02-16T04:32:31;15.00;99.90
21019;DHT22;10667;51.056;3.732;2024-02-16T04:34:56;15.00;99.90
21019;DHT22;10667;51.056;3.732;2024-02-16T04:37:23;15.00;99.90
21019;DHT22;10667;51.056;3.732;2024-02-16T04:39:49;15.10;99.90
21019;DHT22;10667;51.056;3.732;2024-02-16T04:42:16;15.10;99.90
21019;DHT22;10667;51.056;3.732;2024-02-16T04:44:42;15.10;99.90
21019;DHT22;10667;51.056;3.732;2024-02-16T04:47:07;15.10;99.90
21019;DHT22;10667;51.056;3.732;2024-02-16T04:49:33;15.10;99.90
21019;DHT22;10667;51.056;3.732;2024-02-16T04:51:59;15.10;99.90
21019;DHT22;10667;51.056;3.732;2024-02-16T04:54:24;15.10;99.90
21019;DHT22;10667;51.056;3.732;2024-02-16T04:56:50;15.10;99.90
21019;DHT22;10667;51.056;3.732;2024-02-16T04:59:16;15.00;99.90
21019;DHT22;10667;51.056;3.732;2024-02-16T05:01:46;14.90;99.90
21019;DHT22;10667;51.056;3.732;2024-02-16T05:04:12;15.00;99.90
21019;DHT22;10667;51.056;3.732;2024-02-16T05:06:45;14.90;99.90
21019;DHT22;10667;51.056;3.732;2024-02-16T05:09:12;14.90;99.90
21019;DHT22;10667;51.056;3.732;2024-02-16T05:11:38;14.80;99.90
21019;DHT22;10667;51.056;3.732;2024-02-16T05:14:03;14.70;99.90
21019;DHT22;10667;51.056;3.732;2024-02-16T05:16:29;14.70;99.90
21019;DHT22;10667;51.056;3.732;2024-02-16T05:18:58;14.60;99.90
21019;DHT22;10667;51.056;3.732;2024-02-16T05:21:23;14.60;99.90
21019;DHT22;10667;51.056;3.732;2024-02-16T05:23:49;14.70;99.90
21019;DHT22;10667;51.056;3.732;2024-02-16T05:26:15;14.70;99.90
21019;DHT22;10667;51.056;3.732;2024-02-16T05:28:40;14.70;99.90
21019;DHT22;10667;51.056;3.732;2024-02-16T05:31:17;14.70;99.90
21019;DHT22;10667;51.056;3.732;2024-02-16T05:33:44;14.60;99.90
21019;DHT22;10667;51.056;3.732;2024-02-16T05:36:10;14.60;99.90
21019;DHT22;10667;51.056;3.732;2024-02-16T05:38:37;14.50;99.90
21019;DHT22;10667;51.056;3.732;2024-02-16T05:41:06;14.50;99.90
21019;DHT22;10667;51.056;3.732;2024-02-16T05:43:32;14.50;99.90
21019;DHT22;10667;51.056;3.732;2024-02-16T05:45:59;14.50;99.90
21019;DHT22;10667;51.056;3.732;2024-02-16T05:48:24;14.60;99.90
21019;DHT22;10667;51.056;3.732;2024-02-16T05:50:52;14.60;99.90
21019;DHT22;10667;51.056;3.732;2024-02-16T05:53:18;14.50;99.90
21019;DHT22;10667;51.056;3.732;2024-02-16T05:55:44;14.50;99.90
21019;DHT22;10667;51.056;3.732;2024-02-16T05:58:10;14.50;99.90
21019;DHT22;10667;51.056;3.732;2024-02-16T06:00:37;14.50;99.90
21019;DHT22;10667;51.056;3.732;2024-02-16T06:03:03;14.60;99.90
21019;DHT22;10667;51.056;3.732;2024-02-16T06:05:28;14.50;99.90
21019;DHT22;10667;51.056;3.732;2024-02-16T06:07:54;14.60;99.90
21019;DHT22;10667;51.056;3.732;2024-02-16T06:10:22;14.70;99.90
21019;DHT22;10667;51.056;3.732;2024-02-16T06:12:48;14.60;99.90
21019;DHT22;10667;51.056;3.732;2024-02-16T06:15:14;14.60;99.90
21019;DHT22;10667;51.056;3.732;2024-02-16T06:17:40;14.50;99.90
21019;DHT22;10667;51.056;3.732;2024-02-16T06:20:06;14.50;99.90
21019;DHT22;10667;51.056;3.732;2024-02-16T06:22:36;14.40;99.90
21019;DHT22;10667;51.056;3.732;2024-02-16T06:25:02;14.50;99.90
21019;DHT22;10667;51.056;3.732;2024-02-16T06:27:27;14.50;99.90
21019;DHT22;10667;51.056;3.732;2024-02-16T06:29:53;14.50;99.90
21019;DHT22;10667;51.056;3.732;2024-02-16T06:32:19;14.50;99.90
21019;DHT22;10667;51.056;3.732;2024-02-16T06:34:45;14.50;99.90
21019;DHT22;10667;51.056;3.732;2024-02-16T06:37:11;14.60;99.90
21019;DHT22;10667;51.056;3.732;2024-02-16T06:39:37;14.50;99.90
21019;DHT22;10667;51.056;3.732;2024-02-16T06:42:03;14.50;99.90
21019;DHT22;10667;51.056;3.732;2024-02-16T06:44:29;14.50;99.90
21019;DHT22;10667;51.056;3.732;2024-02-16T06:46:54;14.60;99.90
21019;DHT22;10667;51.056;3.732;2024-02-16T06:49:20;14.60;99.90
21019;DHT22;10667;51.056;3.732;2024-02-16T06:51:46;14.60;99.90
21019;DHT22;10667;51.056;3.732;2024-02-16T06:54:11;14.70;99.90
21019;DHT22;10667;51.056;3.732;2024-02-16T06:56:38;14.60;99.90
21019;DHT22;10667;51.056;3.732;2024-02-16T06:59:03;14.60;99.90
21019;DHT22;10667;51.056;3.732;2024-02-16T07:01:29;14.70;99.90
21019;DHT22;10667;51.056;3.732;2024-02-16T07:03:54;14.70;99.90
21019;DHT22;10667;51.056;3.732;2024-02-16T07:06:20;14.80;99.90
21019;DHT22;10667;51.056;3.732;2024-02-16T07:08:46;14.70;99.90
21019;DHT22;10667;51.056;3.732;2024-02-16T07:11:12;14.70;99.90
21019;DHT22;10667;51.056;3.732;2024-02-16T07:13:41;14.80;99.90
21019;DHT22;10667;51.056;3.732;2024-02-16T07:16:08;14.80;99.90
21019;DHT22;10667;51.056;3.732;2024-02-16T07:18:34;14.80;99.90
21019;DHT22;10667;51.056;3.732;2024-02-16T07:21:00;14.90;99.90
21019;DHT22;10667;51.056;3.732;2024-02-16T07:23:26;14.90;99.90
21019;DHT22;10667;51.056;3.732;2024-02-16T07:25:52;15.00;99.90
21019;DHT22;10667;51.056;3.732;2024-02-16T07:28:22;15.00;99.90
21019;DHT22;10667;51.056;3.732;2024-02-16T07:30:47;15.00;99.90
21019;DHT22;10667;51.056;3.732;2024-02-16T07:33:13;15.00;99.90
21019;DHT22;10667;51.056;3.732;2024-02-16T07:35:39;14.90;99.90
21019;DHT22;10667;51.056;3.732;2024-02-16T07:38:05;14.80;99.90
21019;DHT22;10667;51.056;3.732;2024-02-16T07:40:31;14.80;99.90
21019;DHT22;10667;51.056;3.732;2024-02-16T07:42:57;14.80;99.90
21019;DHT22;10667;51.056;3.732;2024-02-16T07:45:23;14.90;99.90
21019;DHT22;10667;51.056;3.732;2024-02-16T07:47:48;14.80;99.90
21019;DHT22;10667;51.056;3.732;2024-02-16T07:50:18;14.90;99.90
21019;DHT22;10667;51.056;3.732;2024-02-16T07:52:45;14.90;99.90
21019;DHT22;10667;51.056;3.732;2024-02-16T07:55:11;14.80;99.90
21019;DHT22;10667;51.056;3.732;2024-02-16T07:57:37;14.70;99.90
21019;DHT22;10667;51.056;3.732;2024-02-16T08:00:06;14.60;99.90
21019;DHT22;10667;51.056;3.732;2024-02-16T08:02:32;14.60;99.90
21019;DHT22;10667;51.056;3.732;2024-02-16T08:04:59;14.60;99.90
21019;DHT22;10667;51.056;3.732;2024-02-16T08:07:24;14.60;99.90
21019;DHT22;10667;51.056;3.732;2024-02-16T08:09:50;14.70;99.90
21019;DHT22;10667;51.056;3.732;2024-02-16T08:12:16;14.60;99.90
21019;DHT22;10667;51.056;3.732;2024-02-16T08:14:42;14.60;99.90
21019;DHT22;10667;51.056;3.732;2024-02-16T08:17:09;14.70;99.90
21019;DHT22;10667;51.056;3.732;2024-02-16T08:19:36;14.80;99.90
21019;DHT22;10667;51.056;3.732;2024-02-16T08:22:07;14.80;99.90
21019;DHT22;10667;51.056;3.732;2024-02-16T08:24:36;14.80;99.90
21019;DHT22;10667;51.056;3.732;2024-02-16T08:27:03;14.80;99.90
21019;DHT22;10667;51.056;3.732;2024-02-16T08:29:32;14.80;99.90
21019;DHT22;10667;51.056;3.732;2024-02-16T08:31:57;14.90;99.90
21019;DHT22;10667;51.056;3.732;2024-02-16T08:34:23;14.90;99.90
21019;DHT22;10667;51.056;3.732;2024-02-16T08:36:51;14.80;99.90
21019;DHT22;10667;51.056;3.732;2024-02-16T08:39:17;14.80;99.90
21019;DHT22;10667;51.056;3.732;2024-02-16T08:41:44;14.70;99.90
21019;DHT22;10667;51.056;3.732;2024-02-16T08:44:10;14.60;99.90
21019;DHT22;10667;51.056;3.732;2024-02-16T08:46:39;14.80;99.90
21019;DHT22;10667;51.056;3.732;2024-02-16T08:49:05;14.80;99.90
21019;DHT22;10667;51.056;3.732;2024-02-16T08:51:34;14.70;99.90
21019;DHT22;10667;51.056;3.732;2024-02-16T08:54:00;14.70;99.90
21019;DHT22;10667;51.056;3.732;2024-02-16T08:56:27;14.70;99.90
21019;DHT22;10667;51.056;3.732;2024-02-16T08:58:53;14.80;99.90
21019;DHT22;10667;51.056;3.732;2024-02-16T09:01:18;14.90;99.90
21019;DHT22;10667;51.056;3.732;2024-02-16T09:03:44;14.90;99.90
21019;DHT22;10667;51.056;3.732;2024-02-16T09:06:10;15.00;99.90
21019;DHT22;10667;51.056;3.732;2024-02-16T09:08:35;15.00;99.90
21019;DHT22;10667;51.056;3.732;2024-02-16T09:11:05;15.00;99.90
21019;DHT22;10667;51.056;3.732;2024-02-16T09:13:39;15.00;99.90
21019;DHT22;10667;51.056;3.732;2024-02-16T09:16:05;14.90;99.90
21019;DHT22;10667;51.056;3.732;2024-02-16T09:18:30;14.90;99.90
21019;DHT22;10667;51.056;3.732;2024-02-16T09:20:56;15.00;99.90
21019;DHT22;10667;51.056;3.732;2024-02-16T09:23:22;15.00;99.90
21019;DHT22;10667;51.056;3.732;2024-02-16T09:25:47;14.90;99.90
21019;DHT22;10667;51.056;3.732;2024-02-16T09:28:14;14.80;99.90
21019;DHT22;10667;51.056;3.732;2024-02-16T09:30:40;14.70;99.90
21019;DHT22;10667;51.056;3.732;2024-02-16T09:33:05;14.60;99.90
21019;DHT22;10667;51.056;3.732;2024-02-16T09:35:33;14.50;99.90
21019;DHT22;10667;51.056;3.732;2024-02-16T09:37:58;14.40;99.90
21019;DHT22;10667;51.056;3.732;2024-02-16T09:40:24;14.40;99.90
21019;DHT22;10667;51.056;3.732;2024-02-16T09:42:50;14.40;99.90
21019;DHT22;10667;51.056;3.732;2024-02-16T09:45:16;14.30;99.90
21019;DHT22;10667;51.056;3.732;2024-02-16T09:47:46;14.20;99.90
21019;DHT22;10667;51.056;3.732;2024-02-16T09:50:16;14.20;99.90
21019;DHT22;10667;51.056;3.732;2024-02-16T09:52:47;14.30;99.90
21019;DHT22;10667;51.056;3.732;2024-02-16T09:55:13;14.30;99.90
21019;DHT22;10667;51.056;3.732;2024-02-16T09:57:39;14.30;99.90
21019;DHT22;10667;51.056;3.732;2024-02-16T10:00:05;14.30;99.90
21019;DHT22;10667;51.056;3.732;2024-02-16T10:05:16;14.20;99.90
21019;DHT22;10667;51.056;3.732;2024-02-16T10:07:43;14.30;99.90
21019;DHT22;10667;51.056;3.732;2024-02-16T10:10:26;14.40;99.90
21019;DHT22;10667;51.056;3.732;2024-02-16T10:13:03;14.20;99.90
21019;DHT22;10667;51.056;3.732;2024-02-16T10:15:30;14.20;99.90
21019;DHT22;10667;51.056;3.732;2024-02-16T10:18:05;14.20;99.90
21019;DHT22;10667;51.056;3.732;2024-02-16T10:20:32;14.10;99.90
21019;DHT22;10667;51.056;3.732;2024-02-16T10:23:09;14.00;99.90
21019;DHT22;10667;51.056;3.732;2024-02-16T10:25:36;14.10;99.90
21019;DHT22;10667;51.056;3.732;2024-02-16T10:28:04;14.00;99.90
21019;DHT22;10667;51.056;3.732;2024-02-16T10:30:35;14.00;99.90
21019;DHT22;10667;51.056;3.732;2024-02-16T10:33:02;13.90;99.90
21019;DHT22;10667;51.056;3.732;2024-02-16T10:35:28;14.00;99.90
21019;DHT22;10667;51.056;3.732;2024-02-16T10:37:55;13.90;99.90
21019;DHT22;10667;51.056;3.732;2024-02-16T10:40:23;14.00;99.90
21019;DHT22;10667;51.056;3.732;2024-02-16T10:42:52;14.00;99.90
21019;DHT22;10667;51.056;3.732;2024-02-16T10:45:18;13.90;99.90
21019;DHT22;10667;51.056;3.732;2024-02-16T10:47:46;14.00;99.90
21019;DHT22;10667;51.056;3.732;2024-02-16T10:50:12;14.00;99.90
21019;DHT22;10667;51.056;3.732;2024-02-16T10:52:41;13.90;99.90
21019;DHT22;10667;51.056;3.732;2024-02-16T10:55:09;14.00;99.90
21019;DHT22;10667;51.056;3.732;2024-02-16T10:57:39;13.90;99.90
21019;DHT22;10667;51.056;3.732;2024-02-16T11:00:09;13.90;99.90
21019;DHT22;10667;51.056;3.732;2024-02-16T11:02:57;13.80;99.90
21019;DHT22;10667;51.056;3.732;2024-02-16T11:05:35;13.90;99.90
21019;DHT22;10667;51.056;3.732;2024-02-16T11:08:02;13.80;99.90
21019;DHT22;10667;51.056;3.732;2024-02-16T11:10:27;13.80;99.90
21019;DHT22;10667;51.056;3.732;2024-02-16T11:12:54;13.80;99.90
21019;DHT22;10667;51.056;3.732;2024-02-16T11:15:28;13.70;99.90
21019;DHT22;10667;51.056;3.732;2024-02-16T11:17:56;13.70;99.90
21019;DHT22;10667;51.056;3.732;2024-02-16T11:20:25;13.70;99.90
21019;DHT22;10667;51.056;3.732;2024-02-16T11:22:52;13.60;99.90
21019;DHT22;10667;51.056;3.732;2024-02-16T11:25:18;13.20;99.90
21019;DHT22;10667;51.056;3.732;2024-02-16T11:27:45;12.90;99.90
21019;DHT22;10667;51.056;3.732;2024-02-16T11:30:11;12.70;99.90
21019;DHT22;10667;51.056;3.732;2024-02-16T11:32:36;12.80;99.90
21019;DHT22;10667;51.056;3.732;2024-02-16T11:35:08;12.70;99.90
21019;DHT22;10667;51.056;3.732;2024-02-16T11:37:34;12.70;99.90
21019;DHT22;10667;51.056;3.732;2024-02-16T11:40:00;12.70;99.90
21019;DHT22;10667;51.056;3.732;2024-02-16T11:42:26;12.80;99.90
21019;DHT22;10667;51.056;3.732;2024-02-16T11:44:53;12.80;99.90
21019;DHT22;10667;51.056;3.732;2024-02-16T11:47:20;12.80;99.90
21019;DHT22;10667;51.056;3.732;2024-02-16T11:52:47;13.20;99.90
21019;DHT22;10667;51.056;3.732;2024-02-16T11:55:12;13.20;99.90
21019;DHT22;10667;51.056;3.732;2024-02-16T11:57:40;13.10;99.90
21019;DHT22;10667;51.056;3.732;2024-02-16T12:00:06;13.20;99.90
21019;DHT22;10667;51.056;3.732;2024-02-16T12:02:37;13.40;99.90
21019;DHT22;10667;51.056;3.732;2024-02-16T12:05:03;13.50;99.90
21019;DHT22;10667;51.056;3.732;2024-02-16T12:07:30;13.40;99.90
21019;DHT22;10667;51.056;3.732;2024-02-16T12:10:00;13.30;99.90
21019;DHT22;10667;51.056;3.732;2024-02-16T12:12:27;13.50;99.90
21019;DHT22;10667;51.056;3.732;2024-02-16T12:14:54;13.70;99.90
21019;DHT22;10667;51.056;3.732;2024-02-16T12:17:20;13.90;99.90
21019;DHT22;10667;51.056;3.732;2024-02-16T12:19:46;13.70;99.90
21019;DHT22;10667;51.056;3.732;2024-02-16T12:22:22;13.70;99.90
21019;DHT22;10667;51.056;3.732;2024-02-16T12:24:49;13.70;99.90
21019;DHT22;10667;51.056;3.732;2024-02-16T12:27:15;13.60;99.90
21019;DHT22;10667;51.056;3.732;2024-02-16T12:29:41;13.50;99.90
21019;DHT22;10667;51.056;3.732;2024-02-16T12:32:07;13.40;99.90
21019;DHT22;10667;51.056;3.732;2024-02-16T12:34:36;13.60;99.90
21019;DHT22;10667;51.056;3.732;2024-02-16T12:37:05;13.70;99.90
21019;DHT22;10667;51.056;3.732;2024-02-16T12:39:34;13.70;99.90
21019;DHT22;10667;51.056;3.732;2024-02-16T12:42:00;13.90;99.90
21019;DHT22;10667;51.056;3.732;2024-02-16T12:44:26;14.00;99.90
21019;DHT22;10667;51.056;3.732;2024-02-16T12:46:51;14.00;99.90
21019;DHT22;10667;51.056;3.732;2024-02-16T12:49:17;14.20;99.90
21019;DHT22;10667;51.056;3.732;2024-02-16T12:51:44;14.30;99.90
21019;DHT22;10667;51.056;3.732;2024-02-16T12:54:11;14.20;99.90
21019;DHT22;10667;51.056;3.732;2024-02-16T12:56:40;14.10;99.90
21019;DHT22;10667;51.056;3.732;2024-02-16T12:59:05;14.30;99.90
21019;DHT22;10667;51.056;3.732;2024-02-16T13:01:31;14.30;99.90
21019;DHT22;10667;51.056;3.732;2024-02-16T13:03:57;14.40;99.90
21019;DHT22;10667;51.056;3.732;2024-02-16T13:06:23;14.10;99.90
21019;DHT22;10667;51.056;3.732;2024-02-16T13:08:49;14.10;99.90
21019;DHT22;10667;51.056;3.732;2024-02-16T13:11:14;14.00;99.90
21019;DHT22;10667;51.056;3.732;2024-02-16T13:13:40;14.00;99.90
21019;DHT22;10667;51.056;3.732;2024-02-16T13:16:06;14.10;99.90
21019;DHT22;10667;51.056;3.732;2024-02-16T13:18:31;14.20;99.90
21019;DHT22;10667;51.056;3.732;2024-02-16T13:20:57;14.30;99.90
21019;DHT22;10667;51.056;3.732;2024-02-16T13:23:23;14.20;99.90
21019;DHT22;10667;51.056;3.732;2024-02-16T13:25:48;14.00;99.90
21019;DHT22;10667;51.056;3.732;2024-02-16T13:28:14;13.90;99.90
21019;DHT22;10667;51.056;3.732;2024-02-16T13:30:41;13.90;99.90
21019;DHT22;10667;51.056;3.732;2024-02-16T13:33:07;14.10;99.90
21019;DHT22;10667;51.056;3.732;2024-02-16T13:35:35;14.00;99.90
21019;DHT22;10667;51.056;3.732;2024-02-16T13:38:01;14.00;99.90
21019;DHT22;10667;51.056;3.732;2024-02-16T13:40:27;14.30;99.90
21019;DHT22;10667;51.056;3.732;2024-02-16T13:42:53;14.30;99.90
21019;DHT22;10667;51.056;3.732;2024-02-16T13:45:25;14.20;99.90
21019;DHT22;10667;51.056;3.732;2024-02-16T13:47:51;14.30;99.90
21019;DHT22;10667;51.056;3.732;2024-02-16T13:50:17;14.40;99.90
21019;DHT22;10667;51.056;3.732;2024-02-16T13:52:42;14.60;99.90
21019;DHT22;10667;51.056;3.732;2024-02-16T13:55:08;14.60;99.90
21019;DHT22;10667;51.056;3.732;2024-02-16T13:57:34;14.50;99.90
21019;DHT22;10667;51.056;3.732;2024-02-16T14:00:00;14.30;99.90
21019;DHT22;10667;51.056;3.732;2024-02-16T14:02:25;14.00;99.90
21019;DHT22;10667;51.056;3.732;2024-02-16T14:04:56;13.70;99.90
21019;DHT22;10667;51.056;3.732;2024-02-16T14:07:22;13.60;99.90
21019;DHT22;10667;51.056;3.732;2024-02-16T14:09:48;13.70;99.90
21019;DHT22;10667;51.056;3.732;2024-02-16T14:12:13;13.70;99.90
21019;DHT22;10667;51.056;3.732;2024-02-16T14:14:39;13.80;99.90
21019;DHT22;10667;51.056;3.732;2024-02-16T14:17:05;13.90;99.90
21019;DHT22;10667;51.056;3.732;2024-02-16T14:19:30;13.90;99.90
21019;DHT22;10667;51.056;3.732;2024-02-16T14:21:56;13.90;99.90
21019;DHT22;10667;51.056;3.732;2024-02-16T14:24:22;13.90;99.90
21019;DHT22;10667;51.056;3.732;2024-02-16T14:26:48;14.10;99.90
21019;DHT22;10667;51.056;3.732;2024-02-16T14:29:13;14.00;99.90
21019;DHT22;10667;51.056;3.732;2024-02-16T14:31:39;14.10;99.90
21019;DHT22;10667;51.056;3.732;2024-02-16T14:34:04;14.20;99.90
21019;DHT22;10667;51.056;3.732;2024-02-16T14:36:30;14.30;99.90
21019;DHT22;10667;51.056;3.732;2024-02-16T14:38:56;14.10;99.90
21019;DHT22;10667;51.056;3.732;2024-02-16T14:41:21;14.10;99.90
21019;DHT22;10667;51.056;3.732;2024-02-16T14:43:48;14.10;99.90
21019;DHT22;10667;51.056;3.732;2024-02-16T14:46:14;14.10;99.90
21019;DHT22;10667;51.056;3.732;2024-02-16T14:48:41;14.10;99.90
21019;DHT22;10667;51.056;3.732;2024-02-16T14:51:06;14.20;99.90
21019;DHT22;10667;51.056;3.732;2024-02-16T14:53:32;14.20;99.90
21019;DHT22;10667;51.056;3.732;2024-02-16T14:56:01;14.40;99.90
21019;DHT22;10667;51.056;3.732;2024-02-16T14:58:30;14.80;99.90
21019;DHT22;10667;51.056;3.732;2024-02-16T15:00:56;14.90;99.90
21019;DHT22;10667;51.056;3.732;2024-02-16T15:03:22;14.90;99.90
21019;DHT22;10667;51.056;3.732;2024-02-16T15:05:48;15.20;99.90
21019;DHT22;10667;51.056;3.732;2024-02-16T15:08:14;14.90;99.90
21019;DHT22;10667;51.056;3.732;2024-02-16T15:10:40;15.00;99.90
21019;DHT22;10667;51.056;3.732;2024-02-16T15:13:06;15.10;99.90
21019;DHT22;10667;51.056;3.732;2024-02-16T15:15:31;15.00;99.90
21019;DHT22;10667;51.056;3.732;2024-02-16T15:17:57;15.10;99.90
21019;DHT22;10667;51.056;3.732;2024-02-16T15:20:26;15.10;99.90
21019;DHT22;10667;51.056;3.732;2024-02-16T15:22:53;15.10;99.90
21019;DHT22;10667;51.056;3.732;2024-02-16T15:25:21;15.20;99.90
21019;DHT22;10667;51.056;3.732;2024-02-16T15:27:48;15.30;99.90
21019;DHT22;10667;51.056;3.732;2024-02-16T15:30:14;15.40;99.90
21019;DHT22;10667;51.056;3.732;2024-02-16T15:32:39;15.30;99.90